SKCG/CTG METAR and TAF weather

Enter ICAO airport designator
Station Type Date Time Source
SKCG METAR 2022/11/30 11:00 UTC NOAA

SKCG 301100Z VRB02KT 9999 FEW017TCU 24/23 Q1009 RMK TCU/S A2980


Station Type Date Time Source
SKCG Decoded METAR 2022/11/30 11:00 UTC NOAA

Cartagena / Rafael Nunez, Colombia (SKCG) 10-27N 075-31W 12M
Nov 30, 2022 - 06:00 AM EST / 2022.11.30 1100 UTC
Wind: Variable at 2 MPH (2 KT):0
Visibility: greater than 7 mile(s):0
Sky conditions: mostly clear
Weather: Towering cumulus clouds observed
Temperature: 75 F (24 C)
Dew Point: 73 F (23 C)
Relative Humidity: 94%
Pressure (altimeter): 29.80 in. Hg (1009 hPa)
ob: SKCG 301100Z VRB02KT 9999 FEW017TCU 24/23 Q1009 RMK TCU/S A2980
cycle: 11

Station Type Date Time Source
SKCG TAF 2022/11/30 12:46 UTC NOAA

TAF SKCG 301030Z 3012/0112 VRB02KT 9999 FEW015
BECMG 3015/3017 30010KT SCT017 TX30/3018Z TN25/0110Z

Example: see airport list